Bere Alston, United Kingdom
Current Conditions -  °F | °C
As of 9:50 AM on Wednesday 26 Nov 2014 (Local Time) from EGHQ Reporting Station
Drizzle Drizzle  
Wind Chill:   Ceiling: 700
Heat Index:   Visibility: 2.1mi
Dew Point:   Wind: 3mph
Humidity: 93%   Direction: 30°NNE
Pressure: 29.91"   Gusts: NA
Location:  50.48°N, 4.19°W
Report Text: EGHQ 260950Z 03003KT 3500 -DZ BR OVC007 07/06 Q1013
Loading
Personal Weather Stations






























Interactive Weather Map New forecast layout! Learn more

10-Day Weather Forecast

Advertisements
Track Severe Weather on mobile